KEGI/EGI METAR and TAF weather

Enter ICAO airport designator
Station Type Date Time Source
KEGI METAR 2021/05/11 22:12 UTC NOAA

KEGI 112212Z AUTO 26005KT 10SM -RA FEW002 20/19 A3007 RMK AO2 RAE01RAB01E01RAB12 SLP182 $


Station Type Date Time Source
KEGI Decoded METAR 2021/05/11 22:12 UTC NOAA

Duke Field / Eglin Auxiliary, FL, United States (KEGI) 30-39N 086-31W
May 11, 2021 - 06:12 PM EDT / 2021.05.11 2212 UTC
Wind: from the W (260 degrees) at 6 MPH (5 KT):0
Visibility: 10 mile(s):0
Sky conditions: mostly clear
Weather: light rain
Temperature: 68 F (20 C)
Dew Point: 66 F (19 C)
Relative Humidity: 93%
Pressure (altimeter): 30.07 in. Hg (1018 hPa)
ob: KEGI 112212Z AUTO 26005KT 10SM -RA FEW002 20/19 A3007 RMK AO2 RAE01RAB01E01RAB12 SLP182
cycle: 22

Station Type Date Time Source
KEGI TAF 2021/05/11 21:39 UTC NOAA

TAF
AMD KEGI 112129Z 1121/1223 33009KT 9000 -SHRA VCTS SCT010CB BKN025 QNH2996INS
TEMPO 1121/1124 28015G25KT 8000 -TSRA OVC001CB
BECMG 1200/1201 17009KT 9999 NSW SCT010 BKN030 QNH2995INS
BECMG 1205/1206 19009KT 8000 SHRA BKN010 QNH2999INS
TEMPO 1213/1217 23018G25KT 6000 -TSRA OVC008CB
BECMG 1217/1218 26009KT 9000 -SHRA SCT015 BKN030 QNH3001INS TX19/1121Z TN15/1211Z

Example: see airport list